sensor_id;sensor_type;location;lat;lon;timestamp;pressure;altitude;pressure_sealevel;temperature;humidity
7824;BME280;3957;48.61947800;9.05303100;2022-10-20T00:00:35;96385.84;;;8.04;100.00
7824;BME280;3957;48.61947800;9.05303100;2022-10-20T00:01:56;96395.50;;;8.05;100.00
7824;BME280;3957;48.61947800;9.05303100;2022-10-20T00:03:17;96393.16;;;8.02;100.00
7824;BME280;3957;48.61947800;9.05303100;2022-10-20T00:04:37;96398.69;;;8.00;100.00
7824;BME280;3957;48.61947800;9.05303100;2022-10-20T00:06:16;96392.53;;;8.00;100.00
7824;BME280;3957;48.61947800;9.05303100;2022-10-20T00:07:37;96388.38;;;7.97;100.00
7824;BME280;3957;48.61947800;9.05303100;2022-10-20T00:09:00;96383.44;;;7.94;100.00
7824;BME280;3957;48.61947800;9.05303100;2022-10-20T00:10:21;96383.13;;;7.89;100.00
7824;BME280;3957;48.61947800;9.05303100;2022-10-20T00:11:42;96379.97;;;7.86;100.00
7824;BME280;3957;48.61947800;9.05303100;2022-10-20T00:13:05;96378.69;;;7.81;100.00
7824;BME280;3957;48.61947800;9.05303100;2022-10-20T00:14:26;96377.75;;;7.74;100.00
7824;BME280;3957;48.61947800;9.05303100;2022-10-20T00:15:48;96373.78;;;7.70;100.00
7824;BME280;3957;48.61947800;9.05303100;2022-10-20T00:17:09;96381.97;;;7.69;100.00
7824;BME280;3957;48.61947800;9.05303100;2022-10-20T00:18:29;96377.81;;;7.66;100.00
7824;BME280;3957;48.61947800;9.05303100;2022-10-20T00:19:50;96386.28;;;7.70;100.00
7824;BME280;3957;48.61947800;9.05303100;2022-10-20T00:21:14;96381.13;;;7.68;100.00
7824;BME280;3957;48.61947800;9.05303100;2022-10-20T00:22:35;96387.22;;;7.77;100.00
7824;BME280;3957;48.61947800;9.05303100;2022-10-20T00:23:58;96386.91;;;7.72;100.00
7824;BME280;3957;48.61947800;9.05303100;2022-10-20T00:25:20;96390.13;;;7.67;100.00
7824;BME280;3957;48.61947800;9.05303100;2022-10-20T00:26:40;96383.31;;;7.64;100.00
7824;BME280;3957;48.61947800;9.05303100;2022-10-20T00:28:01;96371.38;;;7.60;100.00
7824;BME280;3957;48.61947800;9.05303100;2022-10-20T00:29:22;96376.25;;;7.57;100.00
7824;BME280;3957;48.61947800;9.05303100;2022-10-20T00:30:42;96371.25;;;7.54;100.00
7824;BME280;3957;48.61947800;9.05303100;2022-10-20T00:32:03;96375.09;;;7.51;100.00
7824;BME280;3957;48.61947800;9.05303100;2022-10-20T00:33:24;96376.13;;;7.50;100.00
7824;BME280;3957;48.61947800;9.05303100;2022-10-20T00:34:45;96379.59;;;7.51;100.00
7824;BME280;3957;48.61947800;9.05303100;2022-10-20T00:36:08;96379.06;;;7.55;100.00
7824;BME280;3957;48.61947800;9.05303100;2022-10-20T00:37:29;96373.91;;;7.54;100.00
7824;BME280;3957;48.61947800;9.05303100;2022-10-20T00:38:50;96371.72;;;7.57;100.00
7824;BME280;3957;48.61947800;9.05303100;2022-10-20T00:40:11;96371.72;;;7.57;100.00
7824;BME280;3957;48.61947800;9.05303100;2022-10-20T00:41:32;96369.06;;;7.57;100.00
7824;BME280;3957;48.61947800;9.05303100;2022-10-20T00:42:53;96372.72;;;7.56;100.00
7824;BME280;3957;48.61947800;9.05303100;2022-10-20T00:46:10;96373.16;;;7.45;100.00
7824;BME280;3957;48.61947800;9.05303100;2022-10-20T00:47:40;96365.53;;;7.42;100.00
7824;BME280;3957;48.61947800;9.05303100;2022-10-20T00:49:21;96361.56;;;7.38;100.00
7824;BME280;3957;48.61947800;9.05303100;2022-10-20T00:50:49;96363.38;;;7.37;100.00
7824;BME280;3957;48.61947800;9.05303100;2022-10-20T00:52:10;96355.56;;;7.36;100.00
7824;BME280;3957;48.61947800;9.05303100;2022-10-20T00:53:31;96352.53;;;7.39;100.00
7824;BME280;3957;48.61947800;9.05303100;2022-10-20T00:54:52;96346.69;;;7.43;100.00
7824;BME280;3957;48.61947800;9.05303100;2022-10-20T00:56:13;96352.22;;;7.42;100.00
7824;BME280;3957;48.61947800;9.05303100;2022-10-20T00:57:34;96338.91;;;7.42;100.00
7824;BME280;3957;48.61947800;9.05303100;2022-10-20T00:58:55;96334.09;;;7.37;100.00
7824;BME280;3957;48.61947800;9.05303100;2022-10-20T01:00:16;96338.59;;;7.37;100.00
7824;BME280;3957;48.61947800;9.05303100;2022-10-20T01:01:37;96333.25;;;7.37;100.00
7824;BME280;3957;48.61947800;9.05303100;2022-10-20T01:03:00;96328.44;;;7.40;100.00
7824;BME280;3957;48.61947800;9.05303100;2022-10-20T01:04:22;96328.06;;;7.43;100.00
7824;BME280;3957;48.61947800;9.05303100;2022-10-20T01:05:43;96333.69;;;7.48;100.00
7824;BME280;3957;48.61947800;9.05303100;2022-10-20T01:07:04;96329.53;;;7.46;100.00
7824;BME280;3957;48.61947800;9.05303100;2022-10-20T01:08:25;96330.91;;;7.42;100.00
7824;BME280;3957;48.61947800;9.05303100;2022-10-20T01:09:46;96334.94;;;7.38;100.00
7824;BME280;3957;48.61947800;9.05303100;2022-10-20T01:11:16;96329.59;;;7.38;100.00
7824;BME280;3957;48.61947800;9.05303100;2022-10-20T01:13:04;96332.09;;;7.39;100.00
7824;BME280;3957;48.61947800;9.05303100;2022-10-20T01:14:35;96331.72;;;7.42;100.00
7824;BME280;3957;48.61947800;9.05303100;2022-10-20T01:16:11;96329.88;;;7.43;100.00
7824;BME280;3957;48.61947800;9.05303100;2022-10-20T01:19:08;96331.03;;;7.48;100.00
7824;BME280;3957;48.61947800;9.05303100;2022-10-20T01:24:03;96324.28;;;7.38;100.00
7824;BME280;3957;48.61947800;9.05303100;2022-10-20T01:25:40;96321.81;;;7.36;100.00
7824;BME280;3957;48.61947800;9.05303100;2022-10-20T01:27:14;96317.66;;;7.34;100.00
7824;BME280;3957;48.61947800;9.05303100;2022-10-20T01:28:54;96317.47;;;7.35;100.00
7824;BME280;3957;48.61947800;9.05303100;2022-10-20T01:30:18;96309.66;;;7.34;100.00
7824;BME280;3957;48.61947800;9.05303100;2022-10-20T01:33:38;96313.97;;;7.35;100.00
7824;BME280;3957;48.61947800;9.05303100;2022-10-20T01:35:10;96310.31;;;7.36;100.00
7824;BME280;3957;48.61947800;9.05303100;2022-10-20T01:37:06;96308.50;;;7.36;100.00
7824;BME280;3957;48.61947800;9.05303100;2022-10-20T01:38:38;96311.31;;;7.35;100.00
7824;BME280;3957;48.61947800;9.05303100;2022-10-20T01:40:08;96312.16;;;7.35;100.00
7824;BME280;3957;48.61947800;9.05303100;2022-10-20T01:41:35;96313.81;;;7.36;100.00
7824;BME280;3957;48.61947800;9.05303100;2022-10-20T01:43:03;96312.16;;;7.35;100.00
7824;BME280;3957;48.61947800;9.05303100;2022-10-20T01:44:27;96312.78;;;7.37;100.00
7824;BME280;3957;48.61947800;9.05303100;2022-10-20T01:45:50;96297.47;;;7.39;100.00
7824;BME280;3957;48.61947800;9.05303100;2022-10-20T01:47:13;96296.13;;;7.43;100.00
7824;BME280;3957;48.61947800;9.05303100;2022-10-20T01:48:34;96301.25;;;7.45;100.00
7824;BME280;3957;48.61947800;9.05303100;2022-10-20T01:49:57;96292.28;;;7.46;100.00
7824;BME280;3957;48.61947800;9.05303100;2022-10-20T01:51:18;96289.06;;;7.51;100.00
7824;BME280;3957;48.61947800;9.05303100;2022-10-20T01:52:39;96287.41;;;7.49;100.00
7824;BME280;3957;48.61947800;9.05303100;2022-10-20T01:54:00;96286.59;;;7.49;100.00
7824;BME280;3957;48.61947800;9.05303100;2022-10-20T01:55:20;96294.75;;;7.47;100.00
7824;BME280;3957;48.61947800;9.05303100;2022-10-20T02:00:09;96288.75;;;7.45;100.00
7824;BME280;3957;48.61947800;9.05303100;2022-10-20T02:03:47;96287.56;;;7.48;100.00
7824;BME280;3957;48.61947800;9.05303100;2022-10-20T02:05:26;96282.38;;;7.55;100.00
7824;BME280;3957;48.61947800;9.05303100;2022-10-20T02:06:56;96281.19;;;7.57;100.00
7824;BME280;3957;48.61947800;9.05303100;2022-10-20T02:09:51;96269.97;;;7.62;100.00
7824;BME280;3957;48.61947800;9.05303100;2022-10-20T02:11:38;96278.44;;;7.65;100.00
7824;BME280;3957;48.61947800;9.05303100;2022-10-20T02:13:04;96278.25;;;7.67;100.00
7824;BME280;3957;48.61947800;9.05303100;2022-10-20T02:14:27;96273.56;;;7.69;100.00
7824;BME280;3957;48.61947800;9.05303100;2022-10-20T02:15:53;96275.03;;;7.72;100.00
7824;BME280;3957;48.61947800;9.05303100;2022-10-20T02:17:16;96270.38;;;7.74;100.00
7824;BME280;3957;48.61947800;9.05303100;2022-10-20T02:18:41;96266.72;;;7.75;100.00
7824;BME280;3957;48.61947800;9.05303100;2022-10-20T02:20:05;96259.53;;;7.75;100.00
7824;BME280;3957;48.61947800;9.05303100;2022-10-20T02:21:26;96258.72;;;7.75;100.00
7824;BME280;3957;48.61947800;9.05303100;2022-10-20T02:22:48;96263.38;;;7.73;100.00
7824;BME280;3957;48.61947800;9.05303100;2022-10-20T02:24:09;96256.97;;;7.67;100.00
7824;BME280;3957;48.61947800;9.05303100;2022-10-20T02:25:30;96260.09;;;7.71;100.00
7824;BME280;3957;48.61947800;9.05303100;2022-10-20T02:26:54;96259.66;;;7.82;100.00
7824;BME280;3957;48.61947800;9.05303100;2022-10-20T02:28:16;96258.56;;;7.91;100.00
7824;BME280;3957;48.61947800;9.05303100;2022-10-20T02:29:43;96255.78;;;7.99;100.00
7824;BME280;3957;48.61947800;9.05303100;2022-10-20T02:31:05;96252.97;;;8.01;100.00
7824;BME280;3957;48.61947800;9.05303100;2022-10-20T02:32:27;96252.78;;;8.03;100.00
7824;BME280;3957;48.61947800;9.05303100;2022-10-20T02:33:49;96258.09;;;8.03;100.00
7824;BME280;3957;48.61947800;9.05303100;2022-10-20T02:35:12;96251.84;;;8.10;100.00
7824;BME280;3957;48.61947800;9.05303100;2022-10-20T02:36:37;96252.78;;;8.17;100.00
7824;BME280;3957;48.61947800;9.05303100;2022-10-20T02:37:59;96250.94;;;8.18;100.00
7824;BME280;3957;48.61947800;9.05303100;2022-10-20T02:39:20;96257.44;;;8.15;100.00
7824;BME280;3957;48.61947800;9.05303100;2022-10-20T02:40:41;96258.00;;;8.11;100.00
7824;BME280;3957;48.61947800;9.05303100;2022-10-20T02:42:02;96255.97;;;8.13;100.00
7824;BME280;3957;48.61947800;9.05303100;2022-10-20T02:43:23;96251.22;;;8.08;100.00
7824;BME280;3957;48.61947800;9.05303100;2022-10-20T02:44:43;96248.81;;;8.13;100.00
7824;BME280;3957;48.61947800;9.05303100;2022-10-20T02:46:04;96245.69;;;8.10;100.00
7824;BME280;3957;48.61947800;9.05303100;2022-10-20T02:47:25;96249.16;;;8.10;100.00
7824;BME280;3957;48.61947800;9.05303100;2022-10-20T02:48:46;96247.97;;;8.13;100.00
7824;BME280;3957;48.61947800;9.05303100;2022-10-20T02:50:07;96250.44;;;8.14;100.00
7824;BME280;3957;48.61947800;9.05303100;2022-10-20T02:51:28;96245.97;;;8.15;100.00
7824;BME280;3957;48.61947800;9.05303100;2022-10-20T02:52:49;96243.94;;;8.17;100.00
7824;BME280;3957;48.61947800;9.05303100;2022-10-20T02:54:10;96246.59;;;8.17;100.00
7824;BME280;3957;48.61947800;9.05303100;2022-10-20T02:55:30;96252.41;;;8.21;100.00
7824;BME280;3957;48.61947800;9.05303100;2022-10-20T02:56:51;96253.03;;;8.23;100.00
7824;BME280;3957;48.61947800;9.05303100;2022-10-20T02:58:12;96249.53;;;8.22;100.00
7824;BME280;3957;48.61947800;9.05303100;2022-10-20T02:59:33;96244.66;;;8.26;100.00
7824;BME280;3957;48.61947800;9.05303100;2022-10-20T03:00:53;96246.59;;;8.32;100.00
7824;BME280;3957;48.61947800;9.05303100;2022-10-20T03:02:14;96251.63;;;8.42;100.00
7824;BME280;3957;48.61947800;9.05303100;2022-10-20T03:03:35;96242.28;;;8.46;100.00
7824;BME280;3957;48.61947800;9.05303100;2022-10-20T03:04:56;96247.63;;;8.46;100.00
7824;BME280;3957;48.61947800;9.05303100;2022-10-20T03:06:16;96248.63;;;8.45;100.00
7824;BME280;3957;48.61947800;9.05303100;2022-10-20T03:07:37;96246.97;;;8.44;100.00
7824;BME280;3957;48.61947800;9.05303100;2022-10-20T03:08:58;96246.97;;;8.44;100.00
7824;BME280;3957;48.61947800;9.05303100;2022-10-20T03:10:18;96250.28;;;8.46;100.00
7824;BME280;3957;48.61947800;9.05303100;2022-10-20T03:11:39;96254.59;;;8.47;100.00
7824;BME280;3957;48.61947800;9.05303100;2022-10-20T03:13:00;96258.94;;;8.48;100.00
7824;BME280;3957;48.61947800;9.05303100;2022-10-20T03:14:20;96245.41;;;8.49;100.00
7824;BME280;3957;48.61947800;9.05303100;2022-10-20T03:15:41;96251.75;;;8.48;100.00
7824;BME280;3957;48.61947800;9.05303100;2022-10-20T03:17:02;96245.59;;;8.48;100.00
7824;BME280;3957;48.61947800;9.05303100;2022-10-20T03:18:23;96253.09;;;8.44;100.00
7824;BME280;3957;48.61947800;9.05303100;2022-10-20T03:19:44;96251.28;;;8.45;100.00
7824;BME280;3957;48.61947800;9.05303100;2022-10-20T03:21:04;96254.09;;;8.43;100.00
7824;BME280;3957;48.61947800;9.05303100;2022-10-20T03:22:25;96252.44;;;8.42;100.00
7824;BME280;3957;48.61947800;9.05303100;2022-10-20T03:23:46;96250.63;;;8.43;100.00
7824;BME280;3957;48.61947800;9.05303100;2022-10-20T03:25:07;96255.78;;;8.44;100.00
7824;BME280;3957;48.61947800;9.05303100;2022-10-20T03:26:28;96255.63;;;8.46;100.00
7824;BME280;3957;48.61947800;9.05303100;2022-10-20T03:27:49;96255.44;;;8.47;100.00
7824;BME280;3957;48.61947800;9.05303100;2022-10-20T03:29:09;96250.75;;;8.49;100.00
7824;BME280;3957;48.61947800;9.05303100;2022-10-20T03:30:30;96250.56;;;8.51;100.00
7824;BME280;3957;48.61947800;9.05303100;2022-10-20T03:31:51;96250.84;;;8.56;100.00
7824;BME280;3957;48.61947800;9.05303100;2022-10-20T03:33:12;96237.75;;;8.61;100.00
7824;BME280;3957;48.61947800;9.05303100;2022-10-20T03:34:32;96242.34;;;8.67;100.00
7824;BME280;3957;48.61947800;9.05303100;2022-10-20T03:35:53;96241.97;;;8.71;100.00
7824;BME280;3957;48.61947800;9.05303100;2022-10-20T03:37:14;96245.25;;;8.73;100.00
7824;BME280;3957;48.61947800;9.05303100;2022-10-20T03:38:34;96240.56;;;8.75;100.00
7824;BME280;3957;48.61947800;9.05303100;2022-10-20T03:39:55;96247.75;;;8.74;100.00
7824;BME280;3957;48.61947800;9.05303100;2022-10-20T03:41:16;96244.63;;;8.71;100.00
7824;BME280;3957;48.61947800;9.05303100;2022-10-20T03:42:36;96244.16;;;8.67;100.00
7824;BME280;3957;48.61947800;9.05303100;2022-10-20T03:43:57;96250.25;;;8.61;100.00
7824;BME280;3957;48.61947800;9.05303100;2022-10-20T03:45:18;96233.16;;;8.55;100.00
7824;BME280;3957;48.61947800;9.05303100;2022-10-20T03:46:38;96233.16;;;8.55;100.00
7824;BME280;3957;48.61947800;9.05303100;2022-10-20T03:47:59;96238.69;;;8.54;100.00
7824;BME280;3957;48.61947800;9.05303100;2022-10-20T03:49:20;96240.09;;;8.49;100.00
7824;BME280;3957;48.61947800;9.05303100;2022-10-20T03:50:41;96231.03;;;8.50;100.00
7824;BME280;3957;48.61947800;9.05303100;2022-10-20T03:52:02;96226.97;;;8.55;100.00
7824;BME280;3957;48.61947800;9.05303100;2022-10-20T03:53:23;96225.88;;;8.64;100.00
7824;BME280;3957;48.61947800;9.05303100;2022-10-20T03:54:44;96225.94;;;8.71;100.00
7824;BME280;3957;48.61947800;9.05303100;2022-10-20T03:56:07;96223.28;;;8.71;100.00
7824;BME280;3957;48.61947800;9.05303100;2022-10-20T03:57:28;96229.44;;;8.71;100.00
7824;BME280;3957;48.61947800;9.05303100;2022-10-20T03:58:49;96226.75;;;8.71;100.00
7824;BME280;3957;48.61947800;9.05303100;2022-10-20T04:00:10;96229.63;;;8.70;100.00
7824;BME280;3957;48.61947800;9.05303100;2022-10-20T04:01:34;96230.63;;;8.68;100.00
7824;BME280;3957;48.61947800;9.05303100;2022-10-20T04:02:55;96225.47;;;8.67;100.00
7824;BME280;3957;48.61947800;9.05303100;2022-10-20T04:04:16;96222.81;;;8.67;100.00
7824;BME280;3957;48.61947800;9.05303100;2022-10-20T04:05:36;96222.63;;;8.68;100.00
7824;BME280;3957;48.61947800;9.05303100;2022-10-20T04:06:57;96225.47;;;8.67;100.00
7824;BME280;3957;48.61947800;9.05303100;2022-10-20T04:08:18;96231.66;;;8.67;100.00
7824;BME280;3957;48.61947800;9.05303100;2022-10-20T04:09:38;96228.16;;;8.67;100.00
7824;BME280;3957;48.61947800;9.05303100;2022-10-20T04:10:59;96218.13;;;8.69;100.00
7824;BME280;3957;48.61947800;9.05303100;2022-10-20T04:12:21;96217.56;;;8.74;100.00
7824;BME280;3957;48.61947800;9.05303100;2022-10-20T04:13:42;96214.34;;;8.78;100.00
7824;BME280;3957;48.61947800;9.05303100;2022-10-20T04:15:04;96210.28;;;8.82;100.00
7824;BME280;3957;48.61947800;9.05303100;2022-10-20T04:16:25;96214.59;;;8.83;100.00
7824;BME280;3957;48.61947800;9.05303100;2022-10-20T04:17:46;96213.97;;;8.81;100.00
7824;BME280;3957;48.61947800;9.05303100;2022-10-20T04:19:06;96209.63;;;8.80;100.00
7824;BME280;3957;48.61947800;9.05303100;2022-10-20T04:20:27;96206.56;;;8.83;100.00
7824;BME280;3957;48.61947800;9.05303100;2022-10-20T04:21:48;96210.72;;;8.86;100.00
7824;BME280;3957;48.61947800;9.05303100;2022-10-20T04:23:09;96214.22;;;8.87;100.00
7824;BME280;3957;48.61947800;9.05303100;2022-10-20T04:24:29;96214.03;;;8.88;100.00
7824;BME280;3957;48.61947800;9.05303100;2022-10-20T04:25:50;96215.66;;;8.89;100.00
7824;BME280;3957;48.61947800;9.05303100;2022-10-20T04:27:11;96214.25;;;8.93;100.00
7824;BME280;3957;48.61947800;9.05303100;2022-10-20T04:28:31;96209.78;;;8.94;100.00
7824;BME280;3957;48.61947800;9.05303100;2022-10-20T04:29:52;96203.22;;;8.96;100.00
7824;BME280;3957;48.61947800;9.05303100;2022-10-20T04:31:13;96201.84;;;9.00;100.00
7824;BME280;3957;48.61947800;9.05303100;2022-10-20T04:32:34;96205.13;;;9.02;100.00
7824;BME280;3957;48.61947800;9.05303100;2022-10-20T04:33:54;96197.75;;;9.05;100.00
7824;BME280;3957;48.61947800;9.05303100;2022-10-20T04:35:15;96206.38;;;9.07;100.00
7824;BME280;3957;48.61947800;9.05303100;2022-10-20T04:36:36;96208.44;;;9.05;100.00
7824;BME280;3957;48.61947800;9.05303100;2022-10-20T04:37:57;96219.88;;;8.98;100.00
7824;BME280;3957;48.61947800;9.05303100;2022-10-20T04:39:17;96219.38;;;8.88;100.00
7824;BME280;3957;48.61947800;9.05303100;2022-10-20T04:40:38;96220.09;;;8.82;100.00
7824;BME280;3957;48.61947800;9.05303100;2022-10-20T04:41:59;96213.97;;;8.81;100.00
7824;BME280;3957;48.61947800;9.05303100;2022-10-20T04:43:21;96212.09;;;8.82;100.00
7824;BME280;3957;48.61947800;9.05303100;2022-10-20T04:44:42;96207.41;;;8.84;100.00
7824;BME280;3957;48.61947800;9.05303100;2022-10-20T04:46:05;96209.69;;;8.87;100.00
7824;BME280;3957;48.61947800;9.05303100;2022-10-20T04:47:30;96205.84;;;8.90;100.00
7824;BME280;3957;48.61947800;9.05303100;2022-10-20T04:48:52;96200.31;;;8.91;100.00
7824;BME280;3957;48.61947800;9.05303100;2022-10-20T04:50:13;96204.63;;;8.92;100.00
7824;BME280;3957;48.61947800;9.05303100;2022-10-20T04:51:34;96197.44;;;8.93;100.00
7824;BME280;3957;48.61947800;9.05303100;2022-10-20T04:52:54;96202.84;;;8.99;100.00
7824;BME280;3957;48.61947800;9.05303100;2022-10-20T04:54:15;96199.16;;;9.00;100.00
7824;BME280;3957;48.61947800;9.05303100;2022-10-20T04:55:36;96194.00;;;8.99;100.00
7824;BME280;3957;48.61947800;9.05303100;2022-10-20T04:56:57;96194.44;;;9.02;100.00
7824;BME280;3957;48.61947800;9.05303100;2022-10-20T04:58:17;96193.25;;;9.05;100.00
7824;BME280;3957;48.61947800;9.05303100;2022-10-20T04:59:38;96205.00;;;9.11;100.00
7824;BME280;3957;48.61947800;9.05303100;2022-10-20T05:01:01;96198.06;;;9.16;100.00
7824;BME280;3957;48.61947800;9.05303100;2022-10-20T05:02:22;96192.72;;;9.16;100.00
7824;BME280;3957;48.61947800;9.05303100;2022-10-20T05:03:44;96183.69;;;9.17;100.00
7824;BME280;3957;48.61947800;9.05303100;2022-10-20T05:05:05;96181.84;;;9.18;100.00
7824;BME280;3957;48.61947800;9.05303100;2022-10-20T05:06:28;96189.84;;;9.18;100.00
7824;BME280;3957;48.61947800;9.05303100;2022-10-20T05:07:48;96192.53;;;9.18;100.00
7824;BME280;3957;48.61947800;9.05303100;2022-10-20T05:09:12;96186.56;;;9.16;100.00
7824;BME280;3957;48.61947800;9.05303100;2022-10-20T05:10:33;96188.78;;;9.12;100.00
7824;BME280;3957;48.61947800;9.05303100;2022-10-20T05:11:54;96180.97;;;9.11;100.00
7824;BME280;3957;48.61947800;9.05303100;2022-10-20T05:13:15;96178.50;;;9.09;100.00
7824;BME280;3957;48.61947800;9.05303100;2022-10-20T05:14:35;96165.34;;;9.08;100.00
7824;BME280;3957;48.61947800;9.05303100;2022-10-20T05:15:56;96173.34;;;9.08;100.00
7824;BME280;3957;48.61947800;9.05303100;2022-10-20T05:17:17;96165.75;;;9.05;100.00
7824;BME280;3957;48.61947800;9.05303100;2022-10-20T05:18:38;96164.88;;;9.04;100.00
7824;BME280;3957;48.61947800;9.05303100;2022-10-20T05:19:59;96158.53;;;9.05;100.00
7824;BME280;3957;48.61947800;9.05303100;2022-10-20T05:21:23;96155.22;;;9.03;100.00
7824;BME280;3957;48.61947800;9.05303100;2022-10-20T05:22:44;96154.81;;;8.99;100.00
7824;BME280;3957;48.61947800;9.05303100;2022-10-20T05:24:05;96154.16;;;8.97;100.00
7824;BME280;3957;48.61947800;9.05303100;2022-10-20T05:25:26;96150.22;;;8.93;100.00
7824;BME280;3957;48.61947800;9.05303100;2022-10-20T05:26:47;96153.06;;;8.92;100.00
7824;BME280;3957;48.61947800;9.05303100;2022-10-20T05:28:07;96156.59;;;8.92;100.00
7824;BME280;3957;48.61947800;9.05303100;2022-10-20T05:29:28;96151.25;;;8.92;100.00
7824;BME280;3957;48.61947800;9.05303100;2022-10-20T05:30:49;96148.75;;;8.91;100.00
7824;BME280;3957;48.61947800;9.05303100;2022-10-20T05:32:10;96143.59;;;8.89;100.00
7824;BME280;3957;48.61947800;9.05303100;2022-10-20T05:33:31;96149.97;;;8.88;100.00
7824;BME280;3957;48.61947800;9.05303100;2022-10-20T05:34:52;96149.34;;;8.86;100.00
7824;BME280;3957;48.61947800;9.05303100;2022-10-20T05:36:15;96159.38;;;8.84;100.00
7824;BME280;3957;48.61947800;9.05303100;2022-10-20T05:37:36;96146.25;;;8.82;100.00
7824;BME280;3957;48.61947800;9.05303100;2022-10-20T05:38:57;96148.06;;;8.82;100.00
7824;BME280;3957;48.61947800;9.05303100;2022-10-20T05:40:17;96145.41;;;8.82;100.00
7824;BME280;3957;48.61947800;9.05303100;2022-10-20T05:41:38;96142.09;;;8.80;100.00
7824;BME280;3957;48.61947800;9.05303100;2022-10-20T05:42:59;96140.06;;;8.82;100.00
7824;BME280;3957;48.61947800;9.05303100;2022-10-20T05:44:20;96144.59;;;8.81;100.00
7824;BME280;3957;48.61947800;9.05303100;2022-10-20T05:45:40;96133.53;;;8.84;100.00
7824;BME280;3957;48.61947800;9.05303100;2022-10-20T05:47:01;96138.66;;;8.86;100.00
7824;BME280;3957;48.61947800;9.05303100;2022-10-20T05:48:22;96140.75;;;8.91;100.00
7824;BME280;3957;48.61947800;9.05303100;2022-10-20T05:49:43;96133.59;;;8.91;100.00
7824;BME280;3957;48.61947800;9.05303100;2022-10-20T05:51:11;96133.13;;;8.88;100.00
7824;BME280;3957;48.61947800;9.05303100;2022-10-20T05:52:33;96131.50;;;8.87;100.00
7824;BME280;3957;48.61947800;9.05303100;2022-10-20T05:53:55;96141.34;;;8.86;100.00
7824;BME280;3957;48.61947800;9.05303100;2022-10-20T05:55:17;96137.00;;;8.85;100.00
7824;BME280;3957;48.61947800;9.05303100;2022-10-20T05:56:38;96132.63;;;8.77;100.00
7824;BME280;3957;48.61947800;9.05303100;2022-10-20T05:57:59;96130.16;;;8.76;100.00
7824;BME280;3957;48.61947800;9.05303100;2022-10-20T05:59:19;96124.19;;;8.74;100.00
7824;BME280;3957;48.61947800;9.05303100;2022-10-20T06:00:40;96142.03;;;8.73;100.00
7824;BME280;3957;48.61947800;9.05303100;2022-10-20T06:02:01;96137.97;;;8.77;100.00
7824;BME280;3957;48.61947800;9.05303100;2022-10-20T06:03:22;96135.72;;;8.81;100.00
7824;BME280;3957;48.61947800;9.05303100;2022-10-20T06:04:43;96139.50;;;8.87;100.00
7824;BME280;3957;48.61947800;9.05303100;2022-10-20T06:06:04;96137.47;;;8.89;100.00
7824;BME280;3957;48.61947800;9.05303100;2022-10-20T06:07:24;96143.25;;;8.92;100.00
7824;BME280;3957;48.61947800;9.05303100;2022-10-20T06:08:45;96142.66;;;8.97;100.00
7824;BME280;3957;48.61947800;9.05303100;2022-10-20T06:10:07;96137.31;;;8.97;100.00
7824;BME280;3957;48.61947800;9.05303100;2022-10-20T06:11:27;96143.13;;;9.00;100.00
7824;BME280;3957;48.61947800;9.05303100;2022-10-20T06:12:48;96148.06;;;9.04;100.00
7824;BME280;3957;48.61947800;9.05303100;2022-10-20T06:14:09;96148.06;;;9.04;100.00
7824;BME280;3957;48.61947800;9.05303100;2022-10-20T06:15:31;96150.72;;;9.04;100.00
7824;BME280;3957;48.61947800;9.05303100;2022-10-20T06:16:52;96146.22;;;9.04;100.00
7824;BME280;3957;48.61947800;9.05303100;2022-10-20T06:18:13;96148.88;;;9.04;100.00
7824;BME280;3957;48.61947800;9.05303100;2022-10-20T06:19:34;96148.69;;;9.06;100.00
7824;BME280;3957;48.61947800;9.05303100;2022-10-20T06:21:06;96156.13;;;9.10;100.00
7824;BME280;3957;48.61947800;9.05303100;2022-10-20T06:22:27;96157.41;;;9.14;100.00
7824;BME280;3957;48.61947800;9.05303100;2022-10-20T06:23:48;96158.00;;;9.16;100.00
7824;BME280;3957;48.61947800;9.05303100;2022-10-20T06:25:09;96150.84;;;9.17;100.00
7824;BME280;3957;48.61947800;9.05303100;2022-10-20T06:26:31;96156.59;;;9.21;100.00
7824;BME280;3957;48.61947800;9.05303100;2022-10-20T06:27:57;96152.94;;;9.22;100.00
7824;BME280;3957;48.61947800;9.05303100;2022-10-20T06:29:18;96150.25;;;9.22;100.00
7824;BME280;3957;48.61947800;9.05303100;2022-10-20T06:30:39;96161.13;;;9.20;100.00
7824;BME280;3957;48.61947800;9.05303100;2022-10-20T06:32:00;96163.59;;;9.22;100.00
7824;BME280;3957;48.61947800;9.05303100;2022-10-20T06:33:20;96166.28;;;9.22;100.00
7824;BME280;3957;48.61947800;9.05303100;2022-10-20T06:34:41;96165.25;;;9.23;100.00
7824;BME280;3957;48.61947800;9.05303100;2022-10-20T06:36:02;96162.41;;;9.24;100.00
7824;BME280;3957;48.61947800;9.05303100;2022-10-20T06:37:23;96167.53;;;9.26;100.00
7824;BME280;3957;48.61947800;9.05303100;2022-10-20T06:38:44;96171.22;;;9.25;100.00
7824;BME280;3957;48.61947800;9.05303100;2022-10-20T06:40:05;96173.50;;;9.28;100.00
7824;BME280;3957;48.61947800;9.05303100;2022-10-20T06:41:27;96165.94;;;9.31;100.00
7824;BME280;3957;48.61947800;9.05303100;2022-10-20T06:42:48;96171.88;;;9.27;100.00
7824;BME280;3957;48.61947800;9.05303100;2022-10-20T06:44:09;96174.56;;;9.33;100.00
7824;BME280;3957;48.61947800;9.05303100;2022-10-20T06:45:30;96174.19;;;9.36;100.00
7824;BME280;3957;48.61947800;9.05303100;2022-10-20T06:46:50;96176.03;;;9.36;100.00
7824;BME280;3957;48.61947800;9.05303100;2022-10-20T06:48:14;96178.34;;;9.39;100.00
7824;BME280;3957;48.61947800;9.05303100;2022-10-20T06:49:35;96179.59;;;9.43;100.00